createdAt,value
2023-11-28T00:00:38.200Z,28.38
2023-11-28T00:03:10.516Z,28.88
2023-11-28T00:05:39.095Z,29.85
2023-11-28T00:08:07.572Z,26.67
2023-11-28T00:10:35.985Z,26.55
2023-11-28T00:13:04.421Z,27.45
2023-11-28T00:15:35.015Z,27.58
2023-11-28T00:18:03.646Z,27.27
2023-11-28T00:20:33.468Z,26.20
2023-11-28T00:23:01.906Z,26.55
2023-11-28T00:25:30.439Z,25.98
2023-11-28T00:27:58.868Z,26.77
2023-11-28T00:30:27.825Z,28.98
2023-11-28T00:32:56.219Z,26.40
2023-11-28T00:35:24.706Z,27.15
2023-11-28T00:37:54.504Z,27.10
2023-11-28T00:40:26.637Z,24.85
2023-11-28T00:42:55.138Z,27.77
2023-11-28T00:45:26.046Z,25.85
2023-11-28T00:47:55.817Z,26.17
2023-11-28T00:50:24.365Z,26.85
2023-11-28T00:52:54.155Z,27.27
2023-11-28T00:55:23.078Z,27.30
2023-11-28T00:57:51.566Z,28.55
2023-11-28T01:00:20.280Z,27.65
2023-11-28T01:02:48.935Z,28.85
2023-11-28T01:05:17.573Z,26.50
2023-11-28T01:07:46.925Z,28.45
2023-11-28T01:10:16.735Z,30.17
2023-11-28T01:12:47.757Z,27.58
2023-11-28T01:15:16.230Z,28.77
2023-11-28T01:17:44.894Z,34.00
2023-11-28T01:20:14.369Z,30.83
2023-11-28T01:22:44.520Z,34.20
2023-11-28T01:25:13.782Z,32.92
2023-11-28T01:27:43.562Z,31.30
2023-11-28T01:30:13.416Z,35.60
2023-11-28T01:32:42.124Z,31.92
2023-11-28T01:35:11.076Z,32.58
2023-11-28T01:37:39.511Z,29.33
2023-11-28T01:40:08.413Z,30.92
2023-11-28T01:42:37.978Z,30.52
2023-11-28T01:45:10.169Z,28.77
2023-11-28T01:47:38.761Z,30.33
2023-11-28T01:50:08.374Z,30.20
2023-11-28T01:52:37.293Z,35.40
2023-11-28T01:55:06.466Z,29.08
2023-11-28T01:57:35.614Z,30.20
2023-11-28T02:00:05.235Z,33.65
2023-11-28T02:02:43.532Z,29.45
2023-11-28T02:05:13.388Z,32.60
2023-11-28T02:07:43.810Z,27.25
2023-11-28T02:10:13.446Z,27.20
2023-11-28T02:12:45.269Z,26.17
2023-11-28T02:15:13.835Z,25.07
2023-11-28T02:17:43.891Z,26.52
2023-11-28T02:20:12.497Z,24.00
2023-11-28T02:22:42.145Z,27.73
2023-11-28T02:25:10.996Z,26.60
2023-11-28T02:27:40.787Z,26.30
2023-11-28T02:30:09.726Z,24.40
2023-11-28T02:32:38.400Z,25.63
2023-11-28T02:35:14.886Z,25.17
2023-11-28T02:37:49.559Z,25.88
2023-11-28T02:40:18.287Z,27.38
2023-11-28T02:42:48.139Z,25.02
2023-11-28T02:45:16.677Z,28.02
2023-11-28T02:47:45.169Z,24.70
2023-11-28T02:50:13.634Z,28.95
2023-11-28T02:52:42.109Z,26.58
2023-11-28T02:55:10.916Z,27.45
2023-11-28T02:57:39.462Z,26.02
2023-11-28T03:00:11.212Z,25.15
2023-11-28T03:02:40.173Z,23.13
2023-11-28T03:05:09.290Z,21.60
2023-11-28T03:07:37.720Z,22.88
2023-11-28T03:10:06.647Z,20.10
2023-11-28T03:12:35.039Z,19.83
2023-11-28T03:15:03.591Z,18.60
2023-11-28T03:17:33.576Z,19.42
2023-11-28T03:20:02.045Z,19.08
2023-11-28T03:22:30.467Z,18.33
2023-11-28T03:25:06.541Z,24.27
2023-11-28T03:27:35.009Z,19.90
2023-11-28T03:30:03.778Z,24.10
2023-11-28T03:32:35.007Z,18.02
2023-11-28T03:35:04.186Z,16.73
2023-11-28T03:37:32.699Z,19.33
2023-11-28T03:40:01.199Z,17.73
2023-11-28T03:42:29.636Z,17.25
2023-11-28T03:44:58.184Z,15.25
2023-11-28T03:47:26.745Z,13.48
2023-11-28T03:49:57.458Z,18.75
2023-11-28T03:52:25.965Z,14.13
2023-11-28T03:54:54.395Z,13.00
2023-11-28T03:57:22.810Z,13.65
2023-11-28T03:59:51.245Z,13.88
2023-11-28T04:02:19.795Z,18.77
2023-11-28T04:04:48.490Z,14.70
2023-11-28T04:07:18.364Z,20.45
2023-11-28T04:09:46.800Z,12.98
2023-11-28T04:12:15.255Z,32.55
2023-11-28T04:14:43.841Z,13.63
2023-11-28T04:17:12.348Z,11.82
2023-11-28T04:19:41.249Z,12.95
2023-11-28T04:22:11.359Z,14.07
2023-11-28T04:24:42.362Z,15.02
2023-11-28T04:27:13.419Z,11.43
2023-11-28T04:29:42.021Z,12.68
2023-11-28T04:32:10.480Z,11.43
2023-11-28T04:34:39.489Z,12.32
2023-11-28T04:37:08.546Z,11.00
2023-11-28T04:39:45.684Z,9.93
2023-11-28T04:42:14.170Z,14.17
2023-11-28T04:44:43.130Z,23.35
2023-11-28T04:47:11.640Z,9.25
2023-11-28T04:49:40.172Z,10.82
2023-11-28T04:52:08.792Z,9.98
2023-11-28T04:54:37.289Z,8.73
2023-11-28T04:57:07.321Z,12.20
2023-11-28T04:59:35.884Z,13.43
2023-11-28T05:02:04.422Z,10.55
2023-11-28T05:04:33.171Z,8.77
2023-11-28T05:07:01.606Z,8.43
2023-11-28T05:09:30.222Z,8.90
2023-11-28T05:11:58.682Z,9.05
2023-11-28T05:14:30.732Z,9.38
2023-11-28T05:16:59.207Z,9.60
2023-11-28T05:19:28.172Z,8.85
2023-11-28T05:21:58.621Z,9.80
2023-11-28T05:24:27.088Z,8.77
2023-11-28T05:27:01.974Z,7.97
2023-11-28T05:29:32.968Z,8.23
2023-11-28T05:32:02.329Z,8.55
2023-11-28T05:34:30.886Z,10.52
2023-11-28T05:36:59.376Z,8.35
2023-11-28T05:39:28.990Z,9.02
2023-11-28T05:41:57.407Z,8.27
2023-11-28T05:44:25.983Z,9.00
2023-11-28T05:46:56.061Z,8.60
2023-11-28T05:49:25.447Z,8.65
2023-11-28T05:51:54.126Z,9.07
2023-11-28T05:54:22.524Z,9.63
2023-11-28T05:56:50.987Z,9.75
2023-11-28T05:59:19.367Z,10.40
2023-11-28T06:02:05.146Z,12.23
2023-11-28T06:04:36.040Z,12.77
2023-11-28T06:07:05.247Z,11.50
2023-11-28T06:09:33.639Z,11.52
2023-11-28T06:12:04.571Z,11.52
2023-11-28T06:14:33.366Z,10.43
2023-11-28T06:17:03.248Z,12.43
2023-11-28T06:19:31.745Z,11.93
2023-11-28T06:22:00.181Z,12.50
2023-11-28T06:24:28.646Z,13.10
2023-11-28T06:26:57.054Z,12.25
2023-11-28T06:29:25.480Z,11.77
2023-11-28T06:31:54.137Z,13.10
2023-11-28T06:34:23.883Z,13.10
2023-11-28T06:36:52.354Z,11.95
2023-11-28T06:39:21.151Z,12.98
2023-11-28T06:41:50.095Z,13.18
2023-11-28T06:44:19.892Z,13.23
2023-11-28T06:46:48.818Z,12.45
2023-11-28T06:49:17.378Z,12.82
2023-11-28T06:51:47.276Z,15.02
2023-11-28T06:54:16.322Z,15.15
2023-11-28T06:56:44.762Z,37.72
2023-11-28T06:59:13.457Z,24.30
2023-11-28T07:01:42.407Z,18.10
2023-11-28T07:04:10.968Z,23.33
2023-11-28T07:06:40.824Z,51.67
2023-11-28T07:09:11.311Z,86.35
2023-11-28T07:11:39.749Z,18.08
2023-11-28T07:14:08.281Z,19.35
2023-11-28T07:16:36.985Z,21.70
2023-11-28T07:19:05.979Z,22.73
2023-11-28T07:21:34.916Z,24.25
2023-11-28T07:24:03.481Z,26.25
2023-11-28T07:26:33.291Z,26.15
2023-11-28T07:29:01.736Z,28.52
2023-11-28T07:31:30.964Z,28.13
2023-11-28T07:33:59.686Z,32.85
2023-11-28T07:36:28.168Z,38.45
2023-11-28T07:38:56.547Z,27.25
2023-11-28T07:41:24.968Z,29.58
2023-11-28T07:43:54.831Z,26.42
2023-11-28T07:46:24.651Z,34.42
2023-11-28T07:48:53.211Z,32.30
2023-11-28T07:51:21.960Z,26.75
2023-11-28T07:53:50.365Z,33.70
2023-11-28T07:56:19.389Z,30.17
2023-11-28T07:58:47.872Z,29.90
2023-11-28T08:01:17.753Z,27.48
2023-11-28T08:03:46.276Z,28.13
2023-11-28T08:06:15.476Z,31.45
2023-11-28T08:08:44.128Z,27.73
2023-11-28T08:11:13.203Z,31.33
2023-11-28T08:13:41.666Z,26.90
2023-11-28T08:16:10.589Z,39.08
2023-11-28T08:18:43.041Z,27.15
2023-11-28T08:21:12.097Z,37.05
2023-11-28T08:23:40.625Z,33.63
2023-11-28T08:26:09.755Z,30.30
2023-11-28T08:28:38.558Z,32.42
2023-11-28T08:31:07.348Z,29.88
2023-11-28T08:33:35.811Z,27.63
2023-11-28T08:36:05.953Z,30.88
2023-11-28T08:38:34.525Z,33.75
2023-11-28T08:41:04.781Z,36.83
2023-11-28T08:43:33.704Z,30.88
2023-11-28T08:46:03.117Z,33.03
2023-11-28T08:48:32.528Z,40.72
2023-11-28T08:51:01.899Z,35.15
2023-11-28T08:53:34.140Z,38.42
2023-11-28T08:56:03.003Z,29.00
2023-11-28T08:58:31.453Z,28.42
2023-11-28T09:01:00.034Z,27.15
2023-11-28T09:03:29.661Z,28.65
2023-11-28T09:05:59.032Z,32.72
2023-11-28T09:08:30.175Z,27.00
2023-11-28T09:11:04.283Z,27.65
2023-11-28T09:13:34.171Z,28.73
2023-11-28T09:16:10.357Z,25.17
2023-11-28T09:18:42.252Z,33.40
2023-11-28T09:21:11.214Z,25.27
2023-11-28T09:23:41.583Z,24.92
2023-11-28T09:26:11.910Z,27.65
2023-11-28T09:28:43.320Z,27.65
2023-11-28T09:31:12.100Z,24.58
2023-11-28T09:33:41.722Z,24.92
2023-11-28T09:36:11.862Z,26.25
2023-11-28T09:38:41.408Z,28.67
2023-11-28T09:41:10.764Z,24.75
2023-11-28T09:43:45.151Z,20.08
2023-11-28T09:46:19.895Z,22.40
2023-11-28T09:48:50.587Z,21.58
2023-11-28T09:51:20.045Z,23.95
2023-11-28T09:53:50.279Z,22.73
2023-11-28T09:56:21.630Z,19.45
2023-11-28T09:58:52.050Z,20.65
2023-11-28T10:01:21.094Z,24.55
2023-11-28T10:03:50.417Z,20.70
2023-11-28T10:06:21.091Z,21.17
2023-11-28T10:08:50.783Z,22.52
2023-11-28T10:11:20.247Z,21.67
2023-11-28T10:13:51.411Z,25.70
2023-11-28T10:16:22.606Z,20.20
2023-11-28T10:18:52.111Z,19.83
2023-11-28T10:21:20.944Z,21.25
2023-11-28T10:23:49.722Z,19.42
2023-11-28T10:26:18.429Z,20.10
2023-11-28T10:28:50.733Z,19.63
2023-11-28T10:31:21.155Z,20.35
2023-11-28T10:33:50.268Z,19.95
2023-11-28T10:36:19.503Z,20.60
2023-11-28T10:38:59.049Z,19.02
2023-11-28T10:41:33.772Z,20.20
2023-11-28T10:44:03.874Z,20.27
2023-11-28T10:46:37.384Z,20.30
2023-11-28T10:49:09.988Z,20.35
2023-11-28T10:51:42.348Z,17.45
2023-11-28T10:54:12.884Z,18.70
2023-11-28T10:56:49.322Z,20.17
2023-11-28T10:59:37.847Z,19.70
2023-11-28T11:02:09.796Z,18.40
2023-11-28T11:04:42.978Z,19.10
2023-11-28T11:07:12.193Z,19.73
2023-11-28T11:09:41.678Z,19.27
2023-11-28T11:12:10.799Z,20.65
2023-11-28T11:14:44.298Z,19.13
2023-11-28T11:17:20.840Z,21.00
2023-11-28T11:19:54.909Z,20.08
2023-11-28T11:22:27.219Z,23.08
2023-11-28T11:24:55.971Z,18.90
2023-11-28T11:27:31.407Z,18.25
2023-11-28T11:30:01.398Z,15.70
2023-11-28T11:32:31.441Z,18.98
2023-11-28T11:35:00.359Z,18.35
2023-11-28T11:37:32.788Z,16.88
2023-11-28T11:40:01.797Z,17.65
2023-11-28T11:42:32.362Z,17.00
2023-11-28T11:45:02.691Z,16.83
2023-11-28T11:47:33.873Z,17.58
2023-11-28T11:50:06.614Z,16.98
2023-11-28T11:55:07.162Z,16.27
2023-11-28T11:57:35.814Z,16.23
2023-11-28T12:00:05.689Z,17.25
2023-11-28T12:02:41.574Z,19.00
2023-11-28T12:05:11.743Z,16.50
2023-11-28T12:07:42.225Z,18.40
2023-11-28T12:10:13.049Z,17.08
2023-11-28T12:12:42.484Z,17.02
2023-11-28T12:15:13.978Z,18.40
2023-11-28T12:17:44.256Z,17.00
2023-11-28T12:20:13.508Z,17.23
2023-11-28T12:22:42.121Z,16.80
2023-11-28T12:25:19.731Z,20.17
2023-11-28T12:27:48.287Z,16.48
2023-11-28T12:30:16.909Z,15.73
2023-11-28T12:32:46.992Z,16.42
2023-11-28T12:35:21.901Z,16.27
2023-11-28T12:37:50.774Z,16.45
2023-11-28T12:40:19.717Z,17.38
2023-11-28T12:42:48.873Z,15.73
2023-11-28T12:45:20.582Z,17.02
2023-11-28T12:47:50.619Z,16.42
2023-11-28T12:50:19.302Z,16.83
2023-11-28T12:52:48.840Z,17.15
2023-11-28T12:55:17.513Z,16.27
2023-11-28T12:57:45.905Z,16.67
2023-11-28T13:00:15.143Z,17.27
2023-11-28T13:02:44.211Z,18.15
2023-11-28T13:05:14.315Z,19.38
2023-11-28T13:07:48.116Z,21.10
2023-11-28T13:10:21.580Z,16.00
2023-11-28T13:12:51.148Z,14.70
2023-11-28T13:15:22.581Z,16.80
2023-11-28T13:17:51.122Z,15.82
2023-11-28T13:20:23.957Z,15.25
2023-11-28T13:22:52.725Z,15.70
2023-11-28T13:25:21.342Z,15.80
2023-11-28T13:27:49.754Z,16.73
2023-11-28T13:30:20.070Z,15.45
2023-11-28T13:32:48.925Z,14.00
2023-11-28T13:35:20.519Z,17.90
2023-11-28T13:37:52.023Z,15.35
2023-11-28T13:40:20.461Z,14.25
2023-11-28T13:42:48.962Z,13.35
2023-11-28T13:45:17.489Z,13.93
2023-11-28T13:47:46.564Z,15.15
2023-11-28T13:50:15.250Z,15.38
2023-11-28T13:52:43.883Z,13.52
2023-11-28T13:55:13.923Z,14.05
2023-11-28T13:57:42.485Z,14.95
2023-11-28T14:00:11.225Z,15.27
2023-11-28T14:02:45.500Z,15.90
2023-11-28T14:05:14.552Z,15.13
2023-11-28T14:07:43.059Z,14.30
2023-11-28T14:10:12.066Z,15.60
2023-11-28T14:12:41.970Z,16.55
2023-11-28T14:15:11.056Z,16.63
2023-11-28T14:17:39.847Z,17.27
2023-11-28T14:20:10.592Z,15.70
2023-11-28T14:22:39.200Z,15.85
2023-11-28T14:25:11.256Z,16.17
2023-11-28T14:27:42.806Z,15.13
2023-11-28T14:30:13.841Z,14.05
2023-11-28T14:32:42.485Z,15.32
2023-11-28T14:35:11.647Z,16.75
2023-11-28T14:37:40.728Z,14.75
2023-11-28T14:40:13.676Z,14.25
2023-11-28T14:42:43.683Z,20.33
2023-11-28T14:45:13.819Z,15.65
2023-11-28T14:47:43.159Z,15.13
2023-11-28T14:50:11.825Z,15.10
2023-11-28T14:52:40.753Z,13.68
2023-11-28T14:55:09.610Z,14.52
2023-11-28T14:57:38.718Z,14.75
2023-11-28T15:00:12.512Z,13.85
2023-11-28T15:02:42.642Z,15.07
2023-11-28T15:05:14.195Z,16.15
2023-11-28T15:07:43.969Z,14.73
2023-11-28T15:10:12.893Z,15.63
2023-11-28T15:12:42.168Z,22.83
2023-11-28T15:15:11.074Z,25.70
2023-11-28T15:17:40.150Z,14.50
2023-11-28T15:20:11.005Z,18.02
2023-11-28T15:22:39.551Z,17.40
2023-11-28T15:25:08.472Z,17.63
2023-11-28T15:27:37.292Z,18.77
2023-11-28T15:30:10.874Z,17.42
2023-11-28T15:32:40.171Z,20.48
2023-11-28T15:35:13.490Z,18.67
2023-11-28T15:37:44.737Z,16.73
2023-11-28T15:40:13.563Z,15.70
2023-11-28T15:42:41.968Z,13.50
2023-11-28T15:45:12.106Z,13.35
2023-11-28T15:47:40.696Z,13.38
2023-11-28T15:50:11.082Z,14.15
2023-11-28T15:52:39.570Z,15.13
2023-11-28T15:55:08.689Z,13.82
2023-11-28T15:57:37.193Z,14.55
2023-11-28T16:00:06.449Z,13.98
2023-11-28T16:02:35.265Z,15.77
2023-11-28T16:05:04.832Z,16.38
2023-11-28T16:07:34.853Z,17.80
2023-11-28T16:10:03.501Z,16.10
2023-11-28T16:12:32.182Z,11.52
2023-11-28T16:15:03.343Z,11.82
2023-11-28T16:17:34.285Z,12.15
2023-11-28T16:20:03.550Z,13.85
2023-11-28T16:22:31.990Z,12.82
2023-11-28T16:25:03.125Z,12.15
2023-11-28T16:27:31.643Z,14.98
2023-11-28T16:30:00.151Z,13.70
2023-11-28T16:32:28.808Z,13.50
2023-11-28T16:34:57.631Z,11.38
2023-11-28T16:37:26.089Z,12.70
2023-11-28T16:39:54.648Z,10.77
2023-11-28T16:42:24.629Z,12.52
2023-11-28T16:44:53.130Z,11.30
2023-11-28T16:47:21.903Z,12.20
2023-11-28T16:49:53.779Z,13.48
2023-11-28T16:52:22.361Z,12.35
2023-11-28T16:54:54.946Z,11.23
2023-11-28T16:57:27.607Z,9.52
2023-11-28T17:00:01.130Z,9.00
2023-11-28T17:02:29.852Z,15.35
2023-11-28T17:04:58.368Z,15.82
2023-11-28T17:07:26.904Z,12.85
2023-11-28T17:09:55.621Z,14.25
2023-11-28T17:12:26.352Z,12.98
2023-11-28T17:14:56.158Z,12.05
2023-11-28T17:17:25.029Z,11.80
2023-11-28T17:19:54.521Z,12.35
2023-11-28T17:22:23.242Z,10.88
2023-11-28T17:24:51.844Z,13.60
2023-11-28T17:27:21.244Z,11.85
2023-11-28T17:29:51.206Z,10.00
2023-11-28T17:32:21.992Z,11.60
2023-11-28T17:34:53.215Z,10.73
2023-11-28T17:37:21.730Z,11.43
2023-11-28T17:39:50.238Z,12.73
2023-11-28T17:42:19.537Z,10.65
2023-11-28T17:44:51.367Z,10.80
2023-11-28T17:47:26.653Z,9.88
2023-11-28T17:49:55.543Z,8.60
2023-11-28T17:52:24.109Z,8.88
2023-11-28T17:54:52.609Z,10.95
2023-11-28T17:57:21.160Z,10.93
2023-11-28T17:59:50.338Z,12.93
2023-11-28T18:02:19.616Z,11.57
2023-11-28T18:04:49.730Z,9.27
2023-11-28T18:07:18.650Z,9.32
2023-11-28T18:09:47.244Z,9.15
2023-11-28T18:12:16.302Z,11.38
2023-11-28T18:14:45.622Z,12.82
2023-11-28T18:17:14.336Z,12.30
2023-11-28T18:19:43.095Z,10.23
2023-11-28T18:22:12.950Z,10.02
2023-11-28T18:24:41.553Z,12.45
2023-11-28T18:27:10.150Z,24.17
2023-11-28T18:29:38.774Z,11.60
2023-11-28T18:32:08.175Z,12.93
2023-11-28T18:34:36.876Z,12.20
2023-11-28T18:37:05.969Z,11.32
2023-11-28T18:39:36.054Z,10.65
2023-11-28T18:42:04.614Z,12.82
2023-11-28T18:44:33.154Z,9.82
2023-11-28T18:47:01.918Z,9.50
2023-11-28T18:49:31.560Z,10.18
2023-11-28T18:52:00.245Z,10.60
2023-11-28T18:54:28.931Z,10.57
2023-11-28T18:57:00.668Z,9.93
2023-11-28T18:59:29.240Z,10.67
2023-11-28T19:01:58.099Z,10.43
2023-11-28T19:04:26.950Z,40.15
2023-11-28T19:06:55.654Z,15.88
2023-11-28T19:09:24.885Z,9.15
2023-11-28T19:11:53.290Z,11.27
2023-11-28T19:14:23.622Z,10.05
2023-11-28T19:16:52.186Z,9.23
2023-11-28T19:19:20.742Z,9.85
2023-11-28T19:21:50.224Z,7.95
2023-11-28T19:24:19.305Z,9.85
2023-11-28T19:26:48.804Z,8.30
2023-11-28T19:29:17.465Z,9.35
2023-11-28T19:31:49.367Z,11.45
2023-11-28T19:34:20.348Z,10.48
2023-11-28T19:36:49.119Z,9.80
2023-11-28T19:39:18.837Z,9.10
2023-11-28T19:41:47.689Z,9.40
2023-11-28T19:44:18.491Z,9.02
2023-11-28T19:46:51.240Z,10.05
2023-11-28T19:49:20.062Z,9.07
2023-11-28T19:51:49.034Z,10.32
2023-11-28T19:54:19.724Z,8.68
2023-11-28T19:56:48.780Z,10.60
2023-11-28T19:59:17.276Z,10.52
2023-11-28T20:01:45.921Z,9.77
2023-11-28T20:04:16.244Z,7.90
2023-11-28T20:06:46.362Z,10.35
2023-11-28T20:09:15.218Z,11.02
2023-11-28T20:11:43.866Z,9.15
2023-11-28T20:14:12.461Z,9.95
2023-11-28T20:16:43.103Z,9.35
2023-11-28T20:19:11.814Z,10.65
2023-11-28T20:21:41.631Z,9.35
2023-11-28T20:24:10.248Z,8.63
2023-11-28T20:26:38.711Z,8.98
2023-11-28T20:29:10.455Z,7.85
2023-11-28T20:31:39.688Z,7.47
2023-11-28T20:34:08.691Z,7.70
2023-11-28T20:36:37.488Z,6.07
2023-11-28T20:39:08.257Z,8.07
2023-11-28T20:41:37.160Z,7.22
2023-11-28T20:44:05.637Z,6.05
2023-11-28T20:46:34.165Z,7.10
2023-11-28T20:49:02.709Z,7.65
2023-11-28T20:51:31.291Z,7.47
2023-11-28T20:53:59.875Z,7.53
2023-11-28T20:56:29.687Z,7.63
2023-11-28T20:59:00.611Z,7.32
2023-11-28T21:01:31.509Z,6.07
2023-11-28T21:04:00.156Z,5.88
2023-11-28T21:06:28.905Z,6.35
2023-11-28T21:08:57.421Z,7.68
2023-11-28T21:11:26.390Z,7.80
2023-11-28T21:13:57.593Z,6.97
2023-11-28T21:16:27.392Z,8.57
2023-11-28T21:18:56.051Z,7.28
2023-11-28T21:21:25.383Z,6.97
2023-11-28T21:23:53.843Z,7.50
2023-11-28T21:26:23.036Z,12.30
2023-11-28T21:28:51.638Z,10.40
2023-11-28T21:31:21.580Z,8.95
2023-11-28T21:33:50.185Z,10.00
2023-11-28T21:36:18.943Z,12.05
2023-11-28T21:38:48.943Z,11.07
2023-11-28T21:41:19.265Z,9.55
2023-11-28T21:43:47.688Z,10.80
2023-11-28T21:46:18.472Z,9.40
2023-11-28T21:48:51.856Z,7.53
2023-11-28T21:51:20.731Z,7.47
2023-11-28T21:53:49.290Z,7.90
2023-11-28T21:56:18.129Z,9.13
2023-11-28T21:58:46.603Z,8.73
2023-11-28T22:01:14.972Z,11.32
2023-11-28T22:03:43.436Z,10.25
2023-11-28T22:06:13.636Z,9.75
2023-11-28T22:08:50.729Z,9.65
2023-11-28T22:11:25.741Z,11.60
2023-11-28T22:13:54.281Z,11.43
2023-11-28T22:16:22.747Z,12.82
2023-11-28T22:18:52.061Z,13.48
2023-11-28T22:21:25.512Z,13.18
2023-11-28T22:23:55.431Z,14.35
2023-11-28T22:26:31.087Z,14.50
2023-11-28T22:29:02.108Z,14.93
2023-11-28T22:31:30.904Z,13.93
2023-11-28T22:33:59.389Z,15.80
2023-11-28T22:36:29.512Z,16.20
2023-11-28T22:39:01.104Z,16.75
2023-11-28T22:41:34.205Z,17.58
2023-11-28T22:44:02.731Z,16.85
2023-11-28T22:46:31.151Z,15.60
2023-11-28T22:48:59.640Z,16.67
2023-11-28T22:51:30.864Z,17.45
2023-11-28T22:53:59.264Z,18.05
2023-11-28T22:56:27.825Z,17.08
2023-11-28T22:58:56.482Z,18.20
2023-11-28T23:01:25.622Z,18.70
2023-11-28T23:03:54.470Z,20.25
2023-11-28T23:06:23.140Z,21.45
2023-11-28T23:08:52.984Z,21.50
2023-11-28T23:11:21.574Z,19.67
2023-11-28T23:13:50.131Z,20.33
2023-11-28T23:16:18.667Z,19.20
2023-11-28T23:18:47.259Z,18.42
2023-11-28T23:21:15.754Z,15.48
2023-11-28T23:23:44.234Z,14.98
2023-11-28T23:26:14.078Z,14.73
2023-11-28T23:28:42.510Z,14.55
2023-11-28T23:31:10.988Z,13.27
2023-11-28T23:33:39.471Z,12.82
2023-11-28T23:36:08.229Z,14.30
2023-11-28T23:38:36.746Z,12.63
2023-11-28T23:41:05.237Z,13.57
2023-11-28T23:43:35.125Z,13.18
2023-11-28T23:46:04.012Z,12.55
2023-11-28T23:48:32.602Z,12.70
2023-11-28T23:51:01.324Z,12.90
2023-11-28T23:53:29.840Z,13.70
2023-11-28T23:55:58.377Z,12.88
2023-11-28T23:58:26.882Z,12.25
